sensor_id;sensor_type;location;lat;lon;timestamp;pressure;altitude;pressure_sealevel;temperature;humidity
55187;BME280;55457;52.002;5.464;2023-10-19T00:00:18;99058.84;;;20.97;50.68
55187;BME280;55457;52.002;5.464;2023-10-19T00:02:48;99053.41;;;20.97;50.96
55187;BME280;55457;52.002;5.464;2023-10-19T00:05:16;99046.41;;;20.96;50.73
55187;BME280;55457;52.002;5.464;2023-10-19T00:07:42;99049.09;;;20.96;51.22
55187;BME280;55457;52.002;5.464;2023-10-19T00:10:07;99046.41;;;20.96;50.98
55187;BME280;55457;52.002;5.464;2023-10-19T00:12:34;99049.41;;;20.95;51.00
55187;BME280;55457;52.002;5.464;2023-10-19T00:14:59;99040.19;;;20.96;50.81
55187;BME280;55457;52.002;5.464;2023-10-19T00:17:25;99044.78;;;20.95;51.01
55187;BME280;55457;52.002;5.464;2023-10-19T00:19:52;99046.41;;;20.96;50.94
55187;BME280;55457;52.002;5.464;2023-10-19T00:22:43;99034.25;;;20.94;51.10
55187;BME280;55457;52.002;5.464;2023-10-19T00:25:09;99047.50;;;20.95;51.05
55187;BME280;55457;52.002;5.464;2023-10-19T00:27:38;99037.78;;;20.94;50.71
55187;BME280;55457;52.002;5.464;2023-10-19T00:30:07;99036.97;;;20.94;51.10
55187;BME280;55457;52.002;5.464;2023-10-19T00:32:33;99040.47;;;20.94;51.05
55187;BME280;55457;52.002;5.464;2023-10-19T00:35:04;99043.19;;;20.94;50.96
55187;BME280;55457;52.002;5.464;2023-10-19T00:37:35;99043.19;;;20.94;51.04
55187;BME280;55457;52.002;5.464;2023-10-19T00:40:08;99041.56;;;20.93;51.11
55187;BME280;55457;52.002;5.464;2023-10-19T00:42:56;99041.56;;;20.93;51.12
55187;BME280;55457;52.002;5.464;2023-10-19T00:45:21;99039.69;;;20.94;51.22
55187;BME280;55457;52.002;5.464;2023-10-19T00:47:51;99038.03;;;20.93;51.12
55187;BME280;55457;52.002;5.464;2023-10-19T00:50:18;99029.91;;;20.93;51.01
55187;BME280;55457;52.002;5.464;2023-10-19T00:52:47;99033.44;;;20.93;51.21
55187;BME280;55457;52.002;5.464;2023-10-19T00:55:17;99029.13;;;20.92;51.26
55187;BME280;55457;52.002;5.464;2023-10-19T00:57:47;99022.91;;;20.92;51.11
55187;BME280;55457;52.002;5.464;2023-10-19T01:00:15;99027.22;;;20.93;51.40
55187;BME280;55457;52.002;5.464;2023-10-19T01:02:55;99022.91;;;20.92;51.30
55187;BME280;55457;52.002;5.464;2023-10-19T01:05:25;99018.88;;;20.89;51.20
55187;BME280;55457;52.002;5.464;2023-10-19T01:07:57;99021.28;;;20.91;51.23
55187;BME280;55457;52.002;5.464;2023-10-19T01:10:23;99020.47;;;20.90;51.49
55187;BME280;55457;52.002;5.464;2023-10-19T01:12:49;99016.69;;;20.91;51.20
55187;BME280;55457;52.002;5.464;2023-10-19T01:15:19;99015.06;;;20.90;51.57
55187;BME280;55457;52.002;5.464;2023-10-19T01:17:54;99023.19;;;20.90;51.30
55187;BME280;55457;52.002;5.464;2023-10-19T01:20:27;99017.78;;;20.90;51.63
55187;BME280;55457;52.002;5.464;2023-10-19T01:22:56;99018.88;;;20.89;51.22
55187;BME280;55457;52.002;5.464;2023-10-19T01:25:44;99009.66;;;20.90;51.35
55187;BME280;55457;52.002;5.464;2023-10-19T01:28:19;99002.63;;;20.89;51.60
55187;BME280;55457;52.002;5.464;2023-10-19T01:30:45;99001.53;;;20.90;51.58
55187;BME280;55457;52.002;5.464;2023-10-19T01:33:11;99005.34;;;20.89;51.32
55187;BME280;55457;52.002;5.464;2023-10-19T01:35:46;99009.66;;;20.90;51.73
55187;BME280;55457;52.002;5.464;2023-10-19T01:38:31;99008.84;;;20.90;51.72
55187;BME280;55457;52.002;5.464;2023-10-19T01:41:00;99011.56;;;20.90;51.80
55187;BME280;55457;52.002;5.464;2023-10-19T01:43:27;99001.03;;;20.88;51.89
55187;BME280;55457;52.002;5.464;2023-10-19T01:45:56;99013.47;;;20.89;51.55
55187;BME280;55457;52.002;5.464;2023-10-19T01:48:22;99013.47;;;20.89;51.63
55187;BME280;55457;52.002;5.464;2023-10-19T01:50:57;99001.03;;;20.88;51.84
55187;BME280;55457;52.002;5.464;2023-10-19T01:53:22;99001.03;;;20.88;51.88
55187;BME280;55457;52.002;5.464;2023-10-19T01:55:50;98999.94;;;20.89;51.79
55187;BME280;55457;52.002;5.464;2023-10-19T01:58:22;98999.94;;;20.89;51.80
55187;BME280;55457;52.002;5.464;2023-10-19T02:00:50;98994.78;;;20.88;51.89
55187;BME280;55457;52.002;5.464;2023-10-19T02:03:15;98994.78;;;20.88;51.65
55187;BME280;55457;52.002;5.464;2023-10-19T02:05:41;98996.69;;;20.87;51.64
55187;BME280;55457;52.002;5.464;2023-10-19T02:08:07;98993.97;;;20.87;51.88
55187;BME280;55457;52.002;5.464;2023-10-19T02:10:34;98991.28;;;20.87;52.07
55187;BME280;55457;52.002;5.464;2023-10-19T02:13:01;98992.91;;;20.88;51.86
55187;BME280;55457;52.002;5.464;2023-10-19T02:15:32;98990.19;;;20.88;51.75
55187;BME280;55457;52.002;5.464;2023-10-19T02:17:59;98993.97;;;20.87;51.55
55187;BME280;55457;52.002;5.464;2023-10-19T02:20:27;99001.03;;;20.88;51.87
55187;BME280;55457;52.002;5.464;2023-10-19T02:22:52;98997.50;;;20.88;51.99
55187;BME280;55457;52.002;5.464;2023-10-19T02:25:17;99001.03;;;20.88;52.19
55187;BME280;55457;52.002;5.464;2023-10-19T02:27:44;98997.50;;;20.88;52.30
55187;BME280;55457;52.002;5.464;2023-10-19T02:30:10;98995.63;;;20.88;51.94
55187;BME280;55457;52.002;5.464;2023-10-19T02:32:36;98998.31;;;20.88;52.08
55187;BME280;55457;52.002;5.464;2023-10-19T02:35:02;98990.19;;;20.88;52.09
55187;BME280;55457;52.002;5.464;2023-10-19T02:37:28;98988.56;;;20.87;52.17
55187;BME280;55457;52.002;5.464;2023-10-19T02:39:53;98984.78;;;20.88;52.31
55187;BME280;55457;52.002;5.464;2023-10-19T02:42:18;98990.47;;;20.87;52.14
55187;BME280;55457;52.002;5.464;2023-10-19T02:44:47;98987.75;;;20.87;52.37
55187;BME280;55457;52.002;5.464;2023-10-19T02:47:15;98978.84;;;20.86;52.35
55187;BME280;55457;52.002;5.464;2023-10-19T02:49:42;98983.16;;;20.87;52.34
55187;BME280;55457;52.002;5.464;2023-10-19T02:52:16;98982.34;;;20.87;52.04
55187;BME280;55457;52.002;5.464;2023-10-19T02:54:41;98976.94;;;20.87;52.25
55187;BME280;55457;52.002;5.464;2023-10-19T02:57:06;98979.63;;;20.87;52.15
55187;BME280;55457;52.002;5.464;2023-10-19T02:59:32;98976.13;;;20.86;52.33
55187;BME280;55457;52.002;5.464;2023-10-19T03:01:59;98984.25;;;20.86;52.38
55187;BME280;55457;52.002;5.464;2023-10-19T03:04:37;98981.53;;;20.86;52.28
55187;BME280;55457;52.002;5.464;2023-10-19T03:07:04;98977.72;;;20.87;52.49
55187;BME280;55457;52.002;5.464;2023-10-19T03:09:29;98977.72;;;20.87;52.50
55187;BME280;55457;52.002;5.464;2023-10-19T03:11:56;98976.94;;;20.87;52.23
55187;BME280;55457;52.002;5.464;2023-10-19T03:14:27;98972.31;;;20.87;52.48
55187;BME280;55457;52.002;5.464;2023-10-19T03:16:53;98969.59;;;20.87;52.62
55187;BME280;55457;52.002;5.464;2023-10-19T03:19:20;98969.59;;;20.87;52.43
55187;BME280;55457;52.002;5.464;2023-10-19T03:21:46;98963.38;;;20.87;52.60
55187;BME280;55457;52.002;5.464;2023-10-19T03:24:15;98962.59;;;20.86;52.58
55187;BME280;55457;52.002;5.464;2023-10-19T03:26:49;98965.28;;;20.86;52.74
55187;BME280;55457;52.002;5.464;2023-10-19T03:29:15;98963.38;;;20.87;52.71
55187;BME280;55457;52.002;5.464;2023-10-19T03:31:47;98955.28;;;20.87;52.71
55187;BME280;55457;52.002;5.464;2023-10-19T03:34:13;98952.88;;;20.85;52.52
55187;BME280;55457;52.002;5.464;2023-10-19T03:36:39;98951.75;;;20.86;52.52
55187;BME280;55457;52.002;5.464;2023-10-19T03:39:05;98949.06;;;20.86;52.50
55187;BME280;55457;52.002;5.464;2023-10-19T03:41:39;98951.75;;;20.86;52.52
55187;BME280;55457;52.002;5.464;2023-10-19T03:44:08;98956.38;;;20.85;52.59
55187;BME280;55457;52.002;5.464;2023-10-19T03:46:39;98959.88;;;20.86;52.95
55187;BME280;55457;52.002;5.464;2023-10-19T03:49:18;98943.63;;;20.86;52.69
55187;BME280;55457;52.002;5.464;2023-10-19T03:51:45;98948.25;;;20.85;52.91
55187;BME280;55457;52.002;5.464;2023-10-19T03:54:28;98942.84;;;20.85;52.83
55187;BME280;55457;52.002;5.464;2023-10-19T03:56:55;98947.44;;;20.85;52.57
55187;BME280;55457;52.002;5.464;2023-10-19T03:59:27;98940.44;;;20.84;52.89
55187;BME280;55457;52.002;5.464;2023-10-19T04:01:58;98942.03;;;20.85;52.93
55187;BME280;55457;52.002;5.464;2023-10-19T04:04:25;98940.94;;;20.86;52.84
55187;BME280;55457;52.002;5.464;2023-10-19T04:06:51;98941.22;;;20.84;52.92
55187;BME280;55457;52.002;5.464;2023-10-19T04:09:23;98939.31;;;20.85;52.82
55187;BME280;55457;52.002;5.464;2023-10-19T04:11:48;98941.22;;;20.84;53.07
55187;BME280;55457;52.002;5.464;2023-10-19T04:14:15;98935.81;;;20.84;52.86
55187;BME280;55457;52.002;5.464;2023-10-19T04:16:41;98926.09;;;20.83;53.20
55187;BME280;55457;52.002;5.464;2023-10-19T04:19:09;98931.50;;;20.83;53.27
55187;BME280;55457;52.002;5.464;2023-10-19T04:21:35;98929.59;;;20.84;53.20
55187;BME280;55457;52.002;5.464;2023-10-19T04:24:05;98921.47;;;20.84;53.09
55187;BME280;55457;52.002;5.464;2023-10-19T04:26:32;98934.22;;;20.83;53.39
55187;BME280;55457;52.002;5.464;2023-10-19T04:29:02;98936.91;;;20.83;52.90
55187;BME280;55457;52.002;5.464;2023-10-19T04:31:35;98943.13;;;20.84;53.23
55187;BME280;55457;52.002;5.464;2023-10-19T04:34:02;98939.63;;;20.83;53.53
55187;BME280;55457;52.002;5.464;2023-10-19T04:36:32;98941.53;;;20.83;53.32
55187;BME280;55457;52.002;5.464;2023-10-19T04:38:59;98944.25;;;20.83;53.31
55187;BME280;55457;52.002;5.464;2023-10-19T04:41:25;98944.25;;;20.83;53.56
55187;BME280;55457;52.002;5.464;2023-10-19T04:43:52;98942.59;;;20.82;53.09
55187;BME280;55457;52.002;5.464;2023-10-19T04:46:19;98938.81;;;20.83;53.58
55187;BME280;55457;52.002;5.464;2023-10-19T04:48:45;98945.31;;;20.82;53.61
55187;BME280;55457;52.002;5.464;2023-10-19T04:51:10;98940.44;;;20.84;53.62
55187;BME280;55457;52.002;5.464;2023-10-19T04:53:36;98938.81;;;20.83;53.70
55187;BME280;55457;52.002;5.464;2023-10-19T04:56:03;98949.66;;;20.83;53.66
55187;BME280;55457;52.002;5.464;2023-10-19T04:58:29;98938.81;;;20.83;53.65
55187;BME280;55457;52.002;5.464;2023-10-19T05:00:55;98945.31;;;20.82;53.59
55187;BME280;55457;52.002;5.464;2023-10-19T05:03:24;98943.72;;;20.81;53.47
55187;BME280;55457;52.002;5.464;2023-10-19T05:05:49;98955.34;;;20.81;53.62
55187;BME280;55457;52.002;5.464;2023-10-19T05:08:14;98953.44;;;20.82;53.86
55187;BME280;55457;52.002;5.464;2023-10-19T05:10:40;98951.53;;;20.82;53.23
55187;BME280;55457;52.002;5.464;2023-10-19T05:13:07;98950.72;;;20.82;53.40
55187;BME280;55457;52.002;5.464;2023-10-19T05:15:32;98957.25;;;20.81;53.52
55187;BME280;55457;52.002;5.464;2023-10-19T05:17:59;98962.66;;;20.81;53.45
55187;BME280;55457;52.002;5.464;2023-10-19T05:20:24;98966.16;;;20.81;53.60
55187;BME280;55457;52.002;5.464;2023-10-19T05:22:50;98968.88;;;20.81;53.65
55187;BME280;55457;52.002;5.464;2023-10-19T05:25:16;98968.88;;;20.81;53.92
55187;BME280;55457;52.002;5.464;2023-10-19T05:27:41;98966.97;;;20.82;53.62
55187;BME280;55457;52.002;5.464;2023-10-19T05:30:08;98968.06;;;20.81;53.67
55187;BME280;55457;52.002;5.464;2023-10-19T05:32:36;98968.88;;;20.81;53.81
55187;BME280;55457;52.002;5.464;2023-10-19T05:35:01;98971.59;;;20.81;54.03
55187;BME280;55457;52.002;5.464;2023-10-19T05:37:30;98966.47;;;20.80;53.75
55187;BME280;55457;52.002;5.464;2023-10-19T05:39:55;98978.91;;;20.81;53.97
55187;BME280;55457;52.002;5.464;2023-10-19T05:42:21;98971.88;;;20.80;53.59
55187;BME280;55457;52.002;5.464;2023-10-19T05:44:47;98973.47;;;20.81;53.83
55187;BME280;55457;52.002;5.464;2023-10-19T05:47:12;98971.59;;;20.81;53.79
55187;BME280;55457;52.002;5.464;2023-10-19T05:49:38;98978.09;;;20.80;53.82
55187;BME280;55457;52.002;5.464;2023-10-19T05:52:03;98978.91;;;20.81;54.14
55187;BME280;55457;52.002;5.464;2023-10-19T05:54:28;98984.31;;;20.81;54.02
55187;BME280;55457;52.002;5.464;2023-10-19T05:56:54;98983.50;;;20.80;54.08
55187;BME280;55457;52.002;5.464;2023-10-19T05:59:19;98984.63;;;20.79;53.94
55187;BME280;55457;52.002;5.464;2023-10-19T06:01:44;98988.94;;;20.80;53.81
55187;BME280;55457;52.002;5.464;2023-10-19T06:04:13;98986.53;;;20.79;54.18
55187;BME280;55457;52.002;5.464;2023-10-19T06:06:38;98988.94;;;20.80;53.88
55187;BME280;55457;52.002;5.464;2023-10-19T06:09:07;98988.13;;;20.80;53.93
55187;BME280;55457;52.002;5.464;2023-10-19T06:11:34;98987.03;;;20.81;53.93
55187;BME280;55457;52.002;5.464;2023-10-19T06:14:03;98985.41;;;20.80;53.98
55187;BME280;55457;52.002;5.464;2023-10-19T06:16:32;98979.19;;;20.79;54.21
55187;BME280;55457;52.002;5.464;2023-10-19T06:18:57;98982.72;;;20.80;54.03
55187;BME280;55457;52.002;5.464;2023-10-19T06:21:23;98986.53;;;20.79;54.24
55187;BME280;55457;52.002;5.464;2023-10-19T06:23:49;98985.72;;;20.78;53.91
55187;BME280;55457;52.002;5.464;2023-10-19T06:26:15;98981.09;;;20.79;54.26
55187;BME280;55457;52.002;5.464;2023-10-19T06:28:40;98985.72;;;20.78;54.11
55187;BME280;55457;52.002;5.464;2023-10-19T06:31:06;98981.91;;;20.79;54.07
55187;BME280;55457;52.002;5.464;2023-10-19T06:33:32;98988.13;;;20.80;54.07
55187;BME280;55457;52.002;5.464;2023-10-19T06:36:01;98993.53;;;20.80;54.23
55187;BME280;55457;52.002;5.464;2023-10-19T06:38:29;98986.53;;;20.79;54.03
55187;BME280;55457;52.002;5.464;2023-10-19T06:40:54;98991.94;;;20.79;54.23
55187;BME280;55457;52.002;5.464;2023-10-19T06:43:20;98991.94;;;20.79;54.12
55187;BME280;55457;52.002;5.464;2023-10-19T06:45:49;99003.88;;;20.78;54.26
55187;BME280;55457;52.002;5.464;2023-10-19T06:48:14;99007.38;;;20.78;54.73
55187;BME280;55457;52.002;5.464;2023-10-19T06:50:40;99014.41;;;20.79;54.40
55187;BME280;55457;52.002;5.464;2023-10-19T06:53:05;99014.69;;;20.78;54.24
55187;BME280;55457;52.002;5.464;2023-10-19T06:55:31;99019.81;;;20.79;54.12
55187;BME280;55457;52.002;5.464;2023-10-19T06:57:56;99012.78;;;20.78;54.44
55187;BME280;55457;52.002;5.464;2023-10-19T07:00:24;99026.03;;;20.80;54.34
55187;BME280;55457;52.002;5.464;2023-10-19T07:02:55;99020.63;;;20.80;54.50
55187;BME280;55457;52.002;5.464;2023-10-19T07:05:21;99028.72;;;20.80;54.25
55187;BME280;55457;52.002;5.464;2023-10-19T07:07:47;99025.22;;;20.79;54.12
55187;BME280;55457;52.002;5.464;2023-10-19T07:10:14;99031.44;;;20.80;54.38
55187;BME280;55457;52.002;5.464;2023-10-19T07:12:45;99035.25;;;20.79;54.60
55187;BME280;55457;52.002;5.464;2023-10-19T07:15:12;99031.44;;;20.80;54.18
55187;BME280;55457;52.002;5.464;2023-10-19T07:17:41;99031.75;;;20.78;54.32
55187;BME280;55457;52.002;5.464;2023-10-19T07:20:07;99036.34;;;20.78;54.52
55187;BME280;55457;52.002;5.464;2023-10-19T07:22:35;99037.97;;;20.79;54.32
55187;BME280;55457;52.002;5.464;2023-10-19T07:25:05;99042.28;;;20.80;54.50
55187;BME280;55457;52.002;5.464;2023-10-19T07:27:32;99047.69;;;20.80;55.49
55187;BME280;55457;52.002;5.464;2023-10-19T07:29:59;99043.06;;;20.80;56.26
55187;BME280;55457;52.002;5.464;2023-10-19T07:32:24;99036.84;;;20.80;56.13
55187;BME280;55457;52.002;5.464;2023-10-19T07:34:49;99038.75;;;20.79;56.57
55187;BME280;55457;52.002;5.464;2023-10-19T07:37:15;99046.06;;;20.79;56.16
55187;BME280;55457;52.002;5.464;2023-10-19T07:39:47;99044.47;;;20.78;56.50
55187;BME280;55457;52.002;5.464;2023-10-19T07:42:12;99048.25;;;20.77;56.66
55187;BME280;55457;52.002;5.464;2023-10-19T07:44:37;99039.31;;;20.76;56.74
55187;BME280;55457;52.002;5.464;2023-10-19T07:47:03;99040.13;;;20.77;56.74
55187;BME280;55457;52.002;5.464;2023-10-19T07:49:29;99049.34;;;20.76;56.47
55187;BME280;55457;52.002;5.464;2023-10-19T07:51:54;99052.88;;;20.76;56.67
55187;BME280;55457;52.002;5.464;2023-10-19T07:54:20;99048.56;;;20.75;56.43
55187;BME280;55457;52.002;5.464;2023-10-19T07:56:46;99045.84;;;20.75;56.50
55187;BME280;55457;52.002;5.464;2023-10-19T07:59:12;99046.66;;;20.76;56.80
55187;BME280;55457;52.002;5.464;2023-10-19T08:01:38;99046.66;;;20.76;56.34
55187;BME280;55457;52.002;5.464;2023-10-19T08:04:04;99042.84;;;20.77;56.65
55187;BME280;55457;52.002;5.464;2023-10-19T08:06:29;99048.25;;;20.77;56.63
55187;BME280;55457;52.002;5.464;2023-10-19T08:08:56;99043.63;;;20.77;56.40
55187;BME280;55457;52.002;5.464;2023-10-19T08:11:21;99037.41;;;20.77;56.37
55187;BME280;55457;52.002;5.464;2023-10-19T08:13:47;99040.66;;;20.79;56.56
55187;BME280;55457;52.002;5.464;2023-10-19T08:16:12;99032.81;;;20.77;56.40
55187;BME280;55457;52.002;5.464;2023-10-19T08:18:38;99033.66;;;20.78;56.20
55187;BME280;55457;52.002;5.464;2023-10-19T08:21:04;99038.75;;;20.79;56.56
55187;BME280;55457;52.002;5.464;2023-10-19T08:23:30;99037.97;;;20.79;56.36
55187;BME280;55457;52.002;5.464;2023-10-19T08:25:57;99039.56;;;20.80;56.58
55187;BME280;55457;52.002;5.464;2023-10-19T08:28:22;99040.66;;;20.79;56.42
55187;BME280;55457;52.002;5.464;2023-10-19T08:30:48;99031.44;;;20.80;56.57
55187;BME280;55457;52.002;5.464;2023-10-19T08:33:26;99032.25;;;20.80;56.46
55187;BME280;55457;52.002;5.464;2023-10-19T08:35:54;99019.81;;;20.79;56.61
55187;BME280;55457;52.002;5.464;2023-10-19T08:38:20;99021.72;;;20.79;56.19
55187;BME280;55457;52.002;5.464;2023-10-19T08:40:47;99015.19;;;20.80;56.62
55187;BME280;55457;52.002;5.464;2023-10-19T08:43:13;99017.91;;;20.80;56.56
55187;BME280;55457;52.002;5.464;2023-10-19T08:45:39;99010.88;;;20.79;56.76
55187;BME280;55457;52.002;5.464;2023-10-19T08:48:04;99016.31;;;20.79;56.42
55187;BME280;55457;52.002;5.464;2023-10-19T08:50:31;99027.13;;;20.79;56.60
55187;BME280;55457;52.002;5.464;2023-10-19T08:52:58;99037.66;;;20.80;56.37
55187;BME280;55457;52.002;5.464;2023-10-19T08:55:24;99032.25;;;20.80;56.51
55187;BME280;55457;52.002;5.464;2023-10-19T08:57:50;99026.84;;;20.80;56.69
55187;BME280;55457;52.002;5.464;2023-10-19T09:00:17;99018.41;;;20.82;56.68
55187;BME280;55457;52.002;5.464;2023-10-19T09:02:46;99023.25;;;20.85;56.95
55187;BME280;55457;52.002;5.464;2023-10-19T09:05:12;99018.88;;;20.89;56.77
55187;BME280;55457;52.002;5.464;2023-10-19T09:07:53;99018.00;;;20.94;57.15
55187;BME280;55457;52.002;5.464;2023-10-19T09:10:27;99025.84;;;20.95;57.01
55187;BME280;55457;52.002;5.464;2023-10-19T09:13:00;99013.91;;;20.96;57.11
55187;BME280;55457;52.002;5.464;2023-10-19T09:15:29;99013.09;;;20.96;56.99
55187;BME280;55457;52.002;5.464;2023-10-19T09:18:18;99015.81;;;20.96;57.48
55187;BME280;55457;52.002;5.464;2023-10-19T09:20:46;99015.31;;;20.94;57.18
55187;BME280;55457;52.002;5.464;2023-10-19T09:23:25;99031.56;;;20.94;57.42
55187;BME280;55457;52.002;5.464;2023-10-19T09:25:57;99019.38;;;20.91;57.21
55187;BME280;55457;52.002;5.464;2023-10-19T09:28:22;99021.00;;;20.92;57.24
55187;BME280;55457;52.002;5.464;2023-10-19T09:30:49;99017.13;;;20.98;57.29
55187;BME280;55457;52.002;5.464;2023-10-19T09:33:16;99016.84;;;21.00;57.19
55187;BME280;55457;52.002;5.464;2023-10-19T09:35:45;99014.06;;;21.05;57.31
55187;BME280;55457;52.002;5.464;2023-10-19T09:38:14;99013.94;;;21.15;57.04
55187;BME280;55457;52.002;5.464;2023-10-19T09:40:40;99005.44;;;21.22;57.35
55187;BME280;55457;52.002;5.464;2023-10-19T09:43:10;98999.72;;;21.23;56.94
55187;BME280;55457;52.002;5.464;2023-10-19T09:45:41;99006.22;;;21.22;57.14
55187;BME280;55457;52.002;5.464;2023-10-19T09:48:08;98997.22;;;21.27;56.86
55187;BME280;55457;52.002;5.464;2023-10-19T09:50:34;98996.44;;;21.26;56.80
55187;BME280;55457;52.002;5.464;2023-10-19T09:53:00;98990.16;;;21.31;56.64
55187;BME280;55457;52.002;5.464;2023-10-19T09:55:34;98986.88;;;21.29;56.60
55187;BME280;55457;52.002;5.464;2023-10-19T09:58:06;98988.81;;;21.28;57.09
55187;BME280;55457;52.002;5.464;2023-10-19T10:00:33;98989.09;;;21.27;56.89
55187;BME280;55457;52.002;5.464;2023-10-19T10:02:59;98989.69;;;21.24;57.13
55187;BME280;55457;52.002;5.464;2023-10-19T10:10:51;98988.16;;;21.18;57.62
55187;BME280;55457;52.002;5.464;2023-10-19T10:16:00;99001.19;;;21.16;57.95
55187;BME280;55457;52.002;5.464;2023-10-19T10:18:30;98995.78;;;21.16;58.00
55187;BME280;55457;52.002;5.464;2023-10-19T10:21:39;98999.59;;;21.15;57.91
55187;BME280;55457;52.002;5.464;2023-10-19T10:23:59;98987.13;;;21.14;57.59
55187;BME280;55457;52.002;5.464;2023-10-19T10:26:26;98985.50;;;21.13;57.32
55187;BME280;55457;52.002;5.464;2023-10-19T10:29:11;98978.50;;;21.11;57.77
55187;BME280;55457;52.002;5.464;2023-10-19T10:31:44;98970.34;;;21.11;57.86
55187;BME280;55457;52.002;5.464;2023-10-19T10:34:19;98974.19;;;21.10;57.45
55187;BME280;55457;52.002;5.464;2023-10-19T10:36:58;98970.94;;;21.08;57.55
55187;BME280;55457;52.002;5.464;2023-10-19T10:39:26;98970.94;;;21.08;57.39
55187;BME280;55457;52.002;5.464;2023-10-19T10:41:58;98966.63;;;21.07;57.69
55187;BME280;55457;52.002;5.464;2023-10-19T10:44:40;98965.81;;;21.07;58.06
55187;BME280;55457;52.002;5.464;2023-10-19T10:47:39;98965.81;;;21.07;58.10
55187;BME280;55457;52.002;5.464;2023-10-19T10:50:00;98966.63;;;21.07;58.02
55187;BME280;55457;52.002;5.464;2023-10-19T10:52:36;98966.63;;;21.07;58.28
55187;BME280;55457;52.002;5.464;2023-10-19T10:55:09;98969.84;;;21.09;58.07
55187;BME280;55457;52.002;5.464;2023-10-19T10:57:42;98972.56;;;21.09;58.64
55187;BME280;55457;52.002;5.464;2023-10-19T11:00:09;98961.72;;;21.09;58.37
55187;BME280;55457;52.002;5.464;2023-10-19T11:02:40;98956.81;;;21.11;58.48
55187;BME280;55457;52.002;5.464;2023-10-19T11:05:12;98956.25;;;21.15;58.47
55187;BME280;55457;52.002;5.464;2023-10-19T11:07:39;98965.38;;;21.19;58.53
55187;BME280;55457;52.002;5.464;2023-10-19T11:10:05;98958.88;;;21.20;58.56
55187;BME280;55457;52.002;5.464;2023-10-19T11:12:31;98956.91;;;21.25;58.34
55187;BME280;55457;52.002;5.464;2023-10-19T11:14:58;98965.53;;;21.27;58.60
55187;BME280;55457;52.002;5.464;2023-10-19T11:17:24;98959.78;;;21.29;58.08
55187;BME280;55457;52.002;5.464;2023-10-19T11:19:56;98957.88;;;21.29;58.25
55187;BME280;55457;52.002;5.464;2023-10-19T11:22:23;98948.97;;;21.29;58.52
55187;BME280;55457;52.002;5.464;2023-10-19T11:24:52;98947.06;;;21.29;58.21
55187;BME280;55457;52.002;5.464;2023-10-19T11:27:36;98956.03;;;21.30;58.59
55187;BME280;55457;52.002;5.464;2023-10-19T11:30:03;98966.41;;;21.42;58.39
55187;BME280;55457;52.002;5.464;2023-10-19T11:32:36;98960.63;;;21.48;58.16
55187;BME280;55457;52.002;5.464;2023-10-19T11:35:06;98957.66;;;21.63;57.96
55187;BME280;55457;52.002;5.464;2023-10-19T11:37:50;98943.78;;;21.65;58.10
55187;BME280;55457;52.002;5.464;2023-10-19T11:40:18;98951.03;;;21.70;58.25
55187;BME280;55457;52.002;5.464;2023-10-19T11:42:44;98943.63;;;21.75;57.89
55187;BME280;55457;52.002;5.464;2023-10-19T11:45:09;98938.81;;;21.72;58.14
55187;BME280;55457;52.002;5.464;2023-10-19T11:47:37;98933.16;;;21.69;57.79
55187;BME280;55457;52.002;5.464;2023-10-19T11:50:02;98935.38;;;21.67;58.16
55187;BME280;55457;52.002;5.464;2023-10-19T11:52:28;98925.94;;;21.64;57.82
55187;BME280;55457;52.002;5.464;2023-10-19T11:54:54;98924.31;;;21.63;57.79
55187;BME280;55457;52.002;5.464;2023-10-19T11:57:20;98915.97;;;21.59;58.13
55187;BME280;55457;52.002;5.464;2023-10-19T11:59:45;98913.03;;;21.56;57.87
55187;BME280;55457;52.002;5.464;2023-10-19T12:02:10;98909.84;;;21.54;58.39
55187;BME280;55457;52.002;5.464;2023-10-19T12:04:36;98912.84;;;21.52;57.97
55187;BME280;55457;52.002;5.464;2023-10-19T12:07:02;98910.72;;;21.49;58.02
55187;BME280;55457;52.002;5.464;2023-10-19T12:09:28;98911.84;;;21.48;58.12
55187;BME280;55457;52.002;5.464;2023-10-19T12:11:55;98915.97;;;21.46;58.01
55187;BME280;55457;52.002;5.464;2023-10-19T12:14:21;98913.81;;;21.43;58.35
55187;BME280;55457;52.002;5.464;2023-10-19T12:16:47;98911.69;;;21.40;58.05
55187;BME280;55457;52.002;5.464;2023-10-19T12:19:12;98917.41;;;21.38;58.42
55187;BME280;55457;52.002;5.464;2023-10-19T12:21:39;98901.75;;;21.35;58.08
55187;BME280;55457;52.002;5.464;2023-10-19T12:24:07;98901.75;;;21.35;58.15
55187;BME280;55457;52.002;5.464;2023-10-19T12:26:33;98893.13;;;21.33;58.32
55187;BME280;55457;52.002;5.464;2023-10-19T12:28:59;98885.28;;;21.31;58.35
55187;BME280;55457;52.002;5.464;2023-10-19T12:31:24;98888.31;;;21.30;58.42
55187;BME280;55457;52.002;5.464;2023-10-19T12:33:50;98900.19;;;21.29;58.15
55187;BME280;55457;52.002;5.464;2023-10-19T12:36:16;98895.88;;;21.28;58.25
55187;BME280;55457;52.002;5.464;2023-10-19T12:38:53;98893.78;;;21.25;58.31
55187;BME280;55457;52.002;5.464;2023-10-19T12:41:20;98887.84;;;21.23;58.25
55187;BME280;55457;52.002;5.464;2023-10-19T12:43:46;98893.25;;;21.23;58.43
55187;BME280;55457;52.002;5.464;2023-10-19T12:46:12;98890.03;;;21.21;58.16
55187;BME280;55457;52.002;5.464;2023-10-19T12:48:42;98880.59;;;21.18;58.53
55187;BME280;55457;52.002;5.464;2023-10-19T12:51:07;98891.44;;;21.18;58.36
55187;BME280;55457;52.002;5.464;2023-10-19T12:53:34;98899.84;;;21.17;58.76
55187;BME280;55457;52.002;5.464;2023-10-19T12:56:00;98893.63;;;21.16;58.60
55187;BME280;55457;52.002;5.464;2023-10-19T12:58:25;98909.09;;;21.16;58.80
55187;BME280;55457;52.002;5.464;2023-10-19T13:00:53;98895.81;;;21.14;58.96
55187;BME280;55457;52.002;5.464;2023-10-19T13:03:19;98892.31;;;21.14;59.01
55187;BME280;55457;52.002;5.464;2023-10-19T13:05:45;98900.44;;;21.14;58.93
55187;BME280;55457;52.002;5.464;2023-10-19T13:08:14;98905.06;;;21.13;58.83
55187;BME280;55457;52.002;5.464;2023-10-19T13:10:41;98901.53;;;21.13;59.11
55187;BME280;55457;52.002;5.464;2023-10-19T13:13:08;98892.63;;;21.12;58.98